sensor_id;sensor_type;location;lat;lon;timestamp;P1;durP1;ratioP1;P2;durP2;ratioP2
28605;SDS011;46498;49.968;7.754;2023-02-28T00:00:13;2.22;;;1.30;;
28605;SDS011;46498;49.968;7.754;2023-02-28T00:05:16;4.03;;;1.30;;
28605;SDS011;46498;49.968;7.754;2023-02-28T00:10:20;2.20;;;1.15;;
28605;SDS011;46498;49.968;7.754;2023-02-28T00:15:23;4.12;;;1.20;;
28605;SDS011;46498;49.968;7.754;2023-02-28T00:20:24;2.58;;;1.40;;
28605;SDS011;46498;49.968;7.754;2023-02-28T00:25:25;2.70;;;1.30;;
28605;SDS011;46498;49.968;7.754;2023-02-28T00:30:26;3.25;;;1.25;;
28605;SDS011;46498;49.968;7.754;2023-02-28T00:35:27;5.30;;;1.45;;
28605;SDS011;46498;49.968;7.754;2023-02-28T00:40:28;3.08;;;1.35;;
28605;SDS011;46498;49.968;7.754;2023-02-28T00:45:30;5.07;;;1.25;;
28605;SDS011;46498;49.968;7.754;2023-02-28T00:50:31;4.35;;;1.75;;
28605;SDS011;46498;49.968;7.754;2023-02-28T00:55:32;4.32;;;1.37;;
28605;SDS011;46498;49.968;7.754;2023-02-28T01:00:32;5.30;;;1.55;;
28605;SDS011;46498;49.968;7.754;2023-02-28T01:05:33;5.07;;;1.67;;
28605;SDS011;46498;49.968;7.754;2023-02-28T01:10:34;3.08;;;1.60;;
28605;SDS011;46498;49.968;7.754;2023-02-28T01:15:36;2.97;;;1.53;;
28605;SDS011;46498;49.968;7.754;2023-02-28T01:20:39;4.47;;;1.90;;
28605;SDS011;46498;49.968;7.754;2023-02-28T01:25:39;3.55;;;1.73;;
28605;SDS011;46498;49.968;7.754;2023-02-28T01:30:41;3.60;;;1.67;;
28605;SDS011;46498;49.968;7.754;2023-02-28T01:35:42;4.87;;;1.98;;
28605;SDS011;46498;49.968;7.754;2023-02-28T01:40:43;6.18;;;2.10;;
28605;SDS011;46498;49.968;7.754;2023-02-28T01:45:44;3.05;;;1.85;;
28605;SDS011;46498;49.968;7.754;2023-02-28T01:50:45;2.97;;;1.70;;
28605;SDS011;46498;49.968;7.754;2023-02-28T01:55:49;4.20;;;1.90;;
28605;SDS011;46498;49.968;7.754;2023-02-28T02:00:54;4.35;;;1.77;;
28605;SDS011;46498;49.968;7.754;2023-02-28T02:05:55;4.07;;;1.80;;
28605;SDS011;46498;49.968;7.754;2023-02-28T02:10:57;6.57;;;1.70;;
28605;SDS011;46498;49.968;7.754;2023-02-28T02:16:17;4.55;;;2.08;;
28605;SDS011;46498;49.968;7.754;2023-02-28T02:23:02;3.40;;;1.60;;
28605;SDS011;46498;49.968;7.754;2023-02-28T02:29:34;5.20;;;2.10;;
28605;SDS011;46498;49.968;7.754;2023-02-28T02:35:31;3.58;;;2.00;;
28605;SDS011;46498;49.968;7.754;2023-02-28T02:40:58;5.80;;;2.35;;
28605;SDS011;46498;49.968;7.754;2023-02-28T02:46:20;4.35;;;2.40;;
28605;SDS011;46498;49.968;7.754;2023-02-28T02:51:25;7.75;;;2.53;;
28605;SDS011;46498;49.968;7.754;2023-02-28T02:56:28;5.65;;;3.25;;
28605;SDS011;46498;49.968;7.754;2023-02-28T03:01:32;6.50;;;2.70;;
28605;SDS011;46498;49.968;7.754;2023-02-28T03:06:35;5.12;;;2.62;;
28605;SDS011;46498;49.968;7.754;2023-02-28T03:11:37;5.12;;;2.45;;
28605;SDS011;46498;49.968;7.754;2023-02-28T03:16:53;6.37;;;3.00;;
28605;SDS011;46498;49.968;7.754;2023-02-28T03:30:49;7.12;;;3.35;;
28605;SDS011;46498;49.968;7.754;2023-02-28T03:35:55;6.57;;;2.92;;
28605;SDS011;46498;49.968;7.754;2023-02-28T03:41:06;7.57;;;3.37;;
28605;SDS011;46498;49.968;7.754;2023-02-28T03:46:14;5.70;;;2.70;;
28605;SDS011;46498;49.968;7.754;2023-02-28T03:51:21;5.65;;;2.83;;
28605;SDS011;46498;49.968;7.754;2023-02-28T03:56:32;5.93;;;2.95;;
28605;SDS011;46498;49.968;7.754;2023-02-28T04:01:41;7.43;;;3.53;;
28605;SDS011;46498;49.968;7.754;2023-02-28T04:06:44;6.85;;;3.15;;
28605;SDS011;46498;49.968;7.754;2023-02-28T04:11:46;4.68;;;2.65;;
28605;SDS011;46498;49.968;7.754;2023-02-28T04:16:52;6.45;;;2.90;;
28605;SDS011;46498;49.968;7.754;2023-02-28T04:21:53;7.10;;;3.62;;
28605;SDS011;46498;49.968;7.754;2023-02-28T04:26:55;6.50;;;3.92;;
28605;SDS011;46498;49.968;7.754;2023-02-28T04:31:57;9.50;;;3.87;;
28605;SDS011;46498;49.968;7.754;2023-02-28T04:36:59;9.23;;;4.00;;
28605;SDS011;46498;49.968;7.754;2023-02-28T04:42:13;9.98;;;3.97;;
28605;SDS011;46498;49.968;7.754;2023-02-28T04:47:15;10.90;;;4.95;;
28605;SDS011;46498;49.968;7.754;2023-02-28T04:52:16;10.77;;;4.00;;
28605;SDS011;46498;49.968;7.754;2023-02-28T04:57:18;8.57;;;3.80;;
28605;SDS011;46498;49.968;7.754;2023-02-28T05:02:18;8.77;;;4.03;;
28605;SDS011;46498;49.968;7.754;2023-02-28T05:07:21;14.10;;;3.75;;
28605;SDS011;46498;49.968;7.754;2023-02-28T05:12:22;8.40;;;3.80;;
28605;SDS011;46498;49.968;7.754;2023-02-28T05:17:23;6.93;;;3.47;;
28605;SDS011;46498;49.968;7.754;2023-02-28T05:22:24;7.10;;;3.60;;
28605;SDS011;46498;49.968;7.754;2023-02-28T05:27:25;6.18;;;3.35;;
28605;SDS011;46498;49.968;7.754;2023-02-28T05:32:25;7.35;;;3.30;;
28605;SDS011;46498;49.968;7.754;2023-02-28T05:37:27;6.75;;;3.42;;
28605;SDS011;46498;49.968;7.754;2023-02-28T05:42:28;8.98;;;3.78;;
28605;SDS011;46498;49.968;7.754;2023-02-28T05:47:28;6.75;;;3.45;;
28605;SDS011;46498;49.968;7.754;2023-02-28T05:52:29;5.72;;;3.10;;
28605;SDS011;46498;49.968;7.754;2023-02-28T05:57:30;6.10;;;3.45;;
28605;SDS011;46498;49.968;7.754;2023-02-28T06:02:31;5.50;;;3.00;;
28605;SDS011;46498;49.968;7.754;2023-02-28T06:07:32;8.20;;;3.47;;
28605;SDS011;46498;49.968;7.754;2023-02-28T06:12:32;10.50;;;3.40;;
28605;SDS011;46498;49.968;7.754;2023-02-28T06:17:33;10.05;;;3.55;;
28605;SDS011;46498;49.968;7.754;2023-02-28T06:22:35;5.78;;;3.05;;
28605;SDS011;46498;49.968;7.754;2023-02-28T06:27:37;7.43;;;3.80;;
28605;SDS011;46498;49.968;7.754;2023-02-28T06:32:38;6.60;;;3.08;;
28605;SDS011;46498;49.968;7.754;2023-02-28T06:37:40;6.57;;;3.55;;
28605;SDS011;46498;49.968;7.754;2023-02-28T06:42:42;8.25;;;3.47;;
28605;SDS011;46498;49.968;7.754;2023-02-28T06:47:43;5.37;;;3.10;;
28605;SDS011;46498;49.968;7.754;2023-02-28T06:52:44;7.00;;;3.00;;
28605;SDS011;46498;49.968;7.754;2023-02-28T06:57:45;6.20;;;2.90;;
28605;SDS011;46498;49.968;7.754;2023-02-28T07:02:45;6.22;;;2.97;;
28605;SDS011;46498;49.968;7.754;2023-02-28T07:07:47;6.20;;;2.97;;
28605;SDS011;46498;49.968;7.754;2023-02-28T07:12:49;9.35;;;3.08;;
28605;SDS011;46498;49.968;7.754;2023-02-28T07:17:49;7.10;;;3.33;;
28605;SDS011;46498;49.968;7.754;2023-02-28T07:22:50;7.10;;;2.95;;
28605;SDS011;46498;49.968;7.754;2023-02-28T07:27:56;5.12;;;2.62;;
28605;SDS011;46498;49.968;7.754;2023-02-28T07:32:59;5.25;;;2.40;;
28605;SDS011;46498;49.968;7.754;2023-02-28T07:38:00;4.10;;;2.00;;
28605;SDS011;46498;49.968;7.754;2023-02-28T07:43:03;3.70;;;1.85;;
28605;SDS011;46498;49.968;7.754;2023-02-28T07:48:04;3.75;;;1.83;;
28605;SDS011;46498;49.968;7.754;2023-02-28T07:53:05;7.43;;;2.00;;
28605;SDS011;46498;49.968;7.754;2023-02-28T07:58:06;3.30;;;1.73;;
28605;SDS011;46498;49.968;7.754;2023-02-28T08:03:09;4.40;;;1.75;;
28605;SDS011;46498;49.968;7.754;2023-02-28T08:08:12;4.95;;;1.98;;
28605;SDS011;46498;49.968;7.754;2023-02-28T08:13:13;5.28;;;1.90;;
28605;SDS011;46498;49.968;7.754;2023-02-28T08:18:14;4.10;;;1.90;;
28605;SDS011;46498;49.968;7.754;2023-02-28T08:23:15;4.87;;;1.70;;
28605;SDS011;46498;49.968;7.754;2023-02-28T08:28:16;3.97;;;1.77;;
28605;SDS011;46498;49.968;7.754;2023-02-28T08:33:16;3.85;;;1.90;;
28605;SDS011;46498;49.968;7.754;2023-02-28T08:38:17;4.05;;;1.92;;
28605;SDS011;46498;49.968;7.754;2023-02-28T08:43:18;4.35;;;1.87;;
28605;SDS011;46498;49.968;7.754;2023-02-28T08:48:19;6.15;;;2.17;;
28605;SDS011;46498;49.968;7.754;2023-02-28T08:53:20;5.47;;;2.20;;
28605;SDS011;46498;49.968;7.754;2023-02-28T08:58:21;7.90;;;2.45;;
28605;SDS011;46498;49.968;7.754;2023-02-28T09:03:22;12.15;;;2.75;;
28605;SDS011;46498;49.968;7.754;2023-02-28T09:08:26;5.57;;;3.00;;
28605;SDS011;46498;49.968;7.754;2023-02-28T09:13:29;6.12;;;3.25;;
28605;SDS011;46498;49.968;7.754;2023-02-28T09:18:30;6.03;;;3.25;;
28605;SDS011;46498;49.968;7.754;2023-02-28T09:23:31;6.25;;;3.12;;
28605;SDS011;46498;49.968;7.754;2023-02-28T09:28:32;6.60;;;3.30;;
28605;SDS011;46498;49.968;7.754;2023-02-28T09:33:32;7.10;;;3.40;;
28605;SDS011;46498;49.968;7.754;2023-02-28T09:38:34;8.25;;;3.33;;
28605;SDS011;46498;49.968;7.754;2023-02-28T09:43:37;7.43;;;3.95;;
28605;SDS011;46498;49.968;7.754;2023-02-28T09:48:41;10.30;;;4.43;;
28605;SDS011;46498;49.968;7.754;2023-02-28T09:53:46;13.70;;;4.47;;
28605;SDS011;46498;49.968;7.754;2023-02-28T09:58:58;10.05;;;4.55;;
28605;SDS011;46498;49.968;7.754;2023-02-28T10:04:15;9.82;;;4.43;;
28605;SDS011;46498;49.968;7.754;2023-02-28T10:09:36;8.07;;;4.20;;
28605;SDS011;46498;49.968;7.754;2023-02-28T10:14:38;10.77;;;4.47;;
28605;SDS011;46498;49.968;7.754;2023-02-28T10:20:05;12.13;;;4.12;;
28605;SDS011;46498;49.968;7.754;2023-02-28T10:25:20;9.90;;;4.22;;
28605;SDS011;46498;49.968;7.754;2023-02-28T10:30:23;7.10;;;4.05;;
28605;SDS011;46498;49.968;7.754;2023-02-28T10:35:25;5.95;;;4.12;;
28605;SDS011;46498;49.968;7.754;2023-02-28T10:40:29;8.23;;;3.75;;
28605;SDS011;46498;49.968;7.754;2023-02-28T10:45:35;9.85;;;4.18;;
28605;SDS011;46498;49.968;7.754;2023-02-28T10:50:44;9.40;;;3.78;;
28605;SDS011;46498;49.968;7.754;2023-02-28T11:02:51;6.53;;;3.55;;
28605;SDS011;46498;49.968;7.754;2023-02-28T11:07:56;9.63;;;4.03;;
28605;SDS011;46498;49.968;7.754;2023-02-28T11:13:03;13.13;;;4.20;;
28605;SDS011;46498;49.968;7.754;2023-02-28T11:18:19;8.80;;;4.35;;
28605;SDS011;46498;49.968;7.754;2023-02-28T11:23:24;9.88;;;3.97;;
28605;SDS011;46498;49.968;7.754;2023-02-28T11:28:31;8.82;;;4.93;;
28605;SDS011;46498;49.968;7.754;2023-02-28T11:39:26;8.88;;;4.68;;
28605;SDS011;46498;49.968;7.754;2023-02-28T11:44:41;7.62;;;4.05;;
28605;SDS011;46498;49.968;7.754;2023-02-28T12:11:45;9.55;;;4.60;;
28605;SDS011;46498;49.968;7.754;2023-02-28T12:30:12;7.90;;;4.28;;
28605;SDS011;46498;49.968;7.754;2023-02-28T12:35:32;9.48;;;5.07;;
28605;SDS011;46498;49.968;7.754;2023-02-28T12:40:41;13.07;;;4.45;;
28605;SDS011;46498;49.968;7.754;2023-02-28T12:45:55;9.30;;;5.00;;
28605;SDS011;46498;49.968;7.754;2023-02-28T12:50:59;8.57;;;4.90;;
28605;SDS011;46498;49.968;7.754;2023-02-28T12:56:08;12.70;;;5.20;;
28605;SDS011;46498;49.968;7.754;2023-02-28T13:13:06;9.60;;;5.20;;
28605;SDS011;46498;49.968;7.754;2023-02-28T13:18:19;11.18;;;5.43;;
28605;SDS011;46498;49.968;7.754;2023-02-28T13:29:38;11.63;;;6.22;;
28605;SDS011;46498;49.968;7.754;2023-02-28T13:41:43;11.15;;;5.00;;
28605;SDS011;46498;49.968;7.754;2023-02-28T13:52:59;8.65;;;4.75;;
28605;SDS011;46498;49.968;7.754;2023-02-28T13:58:39;9.70;;;4.75;;
28605;SDS011;46498;49.968;7.754;2023-02-28T14:11:56;12.57;;;5.55;;
28605;SDS011;46498;49.968;7.754;2023-02-28T14:16:57;8.82;;;5.40;;
28605;SDS011;46498;49.968;7.754;2023-02-28T14:22:48;10.27;;;5.12;;
28605;SDS011;46498;49.968;7.754;2023-02-28T14:28:09;13.30;;;5.70;;
28605;SDS011;46498;49.968;7.754;2023-02-28T14:41:04;11.90;;;5.80;;
28605;SDS011;46498;49.968;7.754;2023-02-28T14:46:16;10.70;;;5.97;;
28605;SDS011;46498;49.968;7.754;2023-02-28T14:51:22;9.45;;;5.45;;
28605;SDS011;46498;49.968;7.754;2023-02-28T14:56:26;10.93;;;6.20;;
28605;SDS011;46498;49.968;7.754;2023-02-28T15:01:31;15.88;;;6.00;;
28605;SDS011;46498;49.968;7.754;2023-02-28T15:06:34;11.73;;;5.87;;
28605;SDS011;46498;49.968;7.754;2023-02-28T15:11:35;11.05;;;5.60;;
28605;SDS011;46498;49.968;7.754;2023-02-28T15:16:37;13.30;;;6.20;;
28605;SDS011;46498;49.968;7.754;2023-02-28T15:21:43;10.68;;;6.05;;
28605;SDS011;46498;49.968;7.754;2023-02-28T15:26:50;13.48;;;5.93;;
28605;SDS011;46498;49.968;7.754;2023-02-28T15:32:02;11.65;;;6.40;;
28605;SDS011;46498;49.968;7.754;2023-02-28T15:42:31;9.85;;;5.18;;
28605;SDS011;46498;49.968;7.754;2023-02-28T15:47:32;11.23;;;5.82;;
28605;SDS011;46498;49.968;7.754;2023-02-28T15:52:37;16.10;;;6.93;;
28605;SDS011;46498;49.968;7.754;2023-02-28T15:57:41;11.48;;;5.68;;
28605;SDS011;46498;49.968;7.754;2023-02-28T16:02:44;11.88;;;5.93;;
28605;SDS011;46498;49.968;7.754;2023-02-28T16:07:45;10.23;;;5.10;;
28605;SDS011;46498;49.968;7.754;2023-02-28T16:12:54;15.27;;;5.97;;
28605;SDS011;46498;49.968;7.754;2023-02-28T16:17:57;9.98;;;5.47;;
28605;SDS011;46498;49.968;7.754;2023-02-28T16:22:58;14.05;;;5.82;;
28605;SDS011;46498;49.968;7.754;2023-02-28T16:28:02;10.57;;;5.35;;
28605;SDS011;46498;49.968;7.754;2023-02-28T16:33:03;10.07;;;5.37;;
28605;SDS011;46498;49.968;7.754;2023-02-28T16:38:04;13.07;;;6.07;;
28605;SDS011;46498;49.968;7.754;2023-02-28T16:43:07;14.27;;;5.55;;
28605;SDS011;46498;49.968;7.754;2023-02-28T16:48:14;10.77;;;5.57;;
28605;SDS011;46498;49.968;7.754;2023-02-28T16:58:17;11.40;;;4.75;;
28605;SDS011;46498;49.968;7.754;2023-02-28T17:03:23;12.85;;;5.53;;
28605;SDS011;46498;49.968;7.754;2023-02-28T17:08:34;14.43;;;5.65;;
28605;SDS011;46498;49.968;7.754;2023-02-28T17:13:35;11.27;;;5.40;;
28605;SDS011;46498;49.968;7.754;2023-02-28T17:18:36;9.82;;;5.20;;
28605;SDS011;46498;49.968;7.754;2023-02-28T17:23:37;10.50;;;4.93;;
28605;SDS011;46498;49.968;7.754;2023-02-28T17:28:37;10.98;;;5.32;;
28605;SDS011;46498;49.968;7.754;2023-02-28T17:33:38;11.80;;;4.65;;
28605;SDS011;46498;49.968;7.754;2023-02-28T17:38:39;12.13;;;4.95;;
28605;SDS011;46498;49.968;7.754;2023-02-28T17:43:40;7.65;;;4.05;;
28605;SDS011;46498;49.968;7.754;2023-02-28T17:48:41;10.50;;;4.03;;
28605;SDS011;46498;49.968;7.754;2023-02-28T17:53:42;11.48;;;4.57;;
28605;SDS011;46498;49.968;7.754;2023-02-28T17:58:47;9.35;;;5.03;;
28605;SDS011;46498;49.968;7.754;2023-02-28T18:03:48;10.68;;;4.43;;
28605;SDS011;46498;49.968;7.754;2023-02-28T18:08:49;10.43;;;4.95;;
28605;SDS011;46498;49.968;7.754;2023-02-28T18:13:53;8.80;;;4.20;;
28605;SDS011;46498;49.968;7.754;2023-02-28T18:18:57;11.20;;;5.00;;
28605;SDS011;46498;49.968;7.754;2023-02-28T18:23:59;9.80;;;4.62;;
28605;SDS011;46498;49.968;7.754;2023-02-28T18:28:59;12.45;;;4.90;;
28605;SDS011;46498;49.968;7.754;2023-02-28T18:34:01;7.62;;;4.43;;
28605;SDS011;46498;49.968;7.754;2023-02-28T18:39:01;11.82;;;5.60;;
28605;SDS011;46498;49.968;7.754;2023-02-28T18:44:03;11.18;;;4.85;;
28605;SDS011;46498;49.968;7.754;2023-02-28T18:49:19;9.85;;;5.12;;
28605;SDS011;46498;49.968;7.754;2023-02-28T18:54:20;10.77;;;5.10;;
28605;SDS011;46498;49.968;7.754;2023-02-28T18:59:21;12.45;;;5.30;;
28605;SDS011;46498;49.968;7.754;2023-02-28T19:04:22;14.02;;;5.20;;
28605;SDS011;46498;49.968;7.754;2023-02-28T19:09:23;11.93;;;5.32;;
28605;SDS011;46498;49.968;7.754;2023-02-28T19:14:24;13.95;;;6.03;;
28605;SDS011;46498;49.968;7.754;2023-02-28T19:19:25;13.02;;;5.80;;
28605;SDS011;46498;49.968;7.754;2023-02-28T19:24:27;13.55;;;5.22;;
28605;SDS011;46498;49.968;7.754;2023-02-28T19:29:28;13.93;;;5.22;;
28605;SDS011;46498;49.968;7.754;2023-02-28T19:34:29;14.52;;;5.35;;
28605;SDS011;46498;49.968;7.754;2023-02-28T19:39:31;13.07;;;5.15;;
28605;SDS011;46498;49.968;7.754;2023-02-28T19:44:40;9.50;;;4.90;;
28605;SDS011;46498;49.968;7.754;2023-02-28T19:49:41;12.18;;;5.22;;
28605;SDS011;46498;49.968;7.754;2023-02-28T19:54:42;18.50;;;5.62;;
28605;SDS011;46498;49.968;7.754;2023-02-28T19:59:43;10.60;;;5.43;;
28605;SDS011;46498;49.968;7.754;2023-02-28T20:04:46;16.75;;;5.70;;
28605;SDS011;46498;49.968;7.754;2023-02-28T20:14:51;11.80;;;5.47;;
28605;SDS011;46498;49.968;7.754;2023-02-28T20:19:52;16.63;;;5.77;;
28605;SDS011;46498;49.968;7.754;2023-02-28T20:24:53;10.50;;;5.07;;
28605;SDS011;46498;49.968;7.754;2023-02-28T20:29:54;11.10;;;5.70;;
28605;SDS011;46498;49.968;7.754;2023-02-28T20:34:55;14.30;;;6.12;;
28605;SDS011;46498;49.968;7.754;2023-02-28T20:39:56;25.17;;;7.87;;
28605;SDS011;46498;49.968;7.754;2023-02-28T20:45:00;17.92;;;7.28;;
28605;SDS011;46498;49.968;7.754;2023-02-28T20:50:01;22.55;;;8.50;;
28605;SDS011;46498;49.968;7.754;2023-02-28T20:55:02;21.80;;;7.55;;
28605;SDS011;46498;49.968;7.754;2023-02-28T21:00:04;15.45;;;6.80;;
28605;SDS011;46498;49.968;7.754;2023-02-28T21:05:08;15.65;;;6.50;;
28605;SDS011;46498;49.968;7.754;2023-02-28T21:10:10;13.05;;;6.28;;
28605;SDS011;46498;49.968;7.754;2023-02-28T21:15:11;16.27;;;6.60;;
28605;SDS011;46498;49.968;7.754;2023-02-28T21:20:13;20.10;;;7.57;;
28605;SDS011;46498;49.968;7.754;2023-02-28T21:25:21;14.87;;;6.90;;
28605;SDS011;46498;49.968;7.754;2023-02-28T21:30:22;17.20;;;6.93;;
28605;SDS011;46498;49.968;7.754;2023-02-28T21:35:23;16.12;;;6.25;;
28605;SDS011;46498;49.968;7.754;2023-02-28T21:40:23;12.45;;;6.65;;
28605;SDS011;46498;49.968;7.754;2023-02-28T21:45:24;13.00;;;6.75;;
28605;SDS011;46498;49.968;7.754;2023-02-28T21:50:26;15.35;;;6.93;;
28605;SDS011;46498;49.968;7.754;2023-02-28T21:55:27;14.87;;;6.70;;
28605;SDS011;46498;49.968;7.754;2023-02-28T22:00:28;14.07;;;7.10;;
28605;SDS011;46498;49.968;7.754;2023-02-28T22:05:29;12.05;;;6.47;;
28605;SDS011;46498;49.968;7.754;2023-02-28T22:10:29;13.45;;;6.50;;
28605;SDS011;46498;49.968;7.754;2023-02-28T22:15:36;17.20;;;6.87;;
28605;SDS011;46498;49.968;7.754;2023-02-28T22:20:38;15.57;;;7.62;;
28605;SDS011;46498;49.968;7.754;2023-02-28T22:25:39;14.40;;;7.15;;
28605;SDS011;46498;49.968;7.754;2023-02-28T22:30:40;16.90;;;7.20;;
28605;SDS011;46498;49.968;7.754;2023-02-28T22:35:41;15.68;;;7.55;;
28605;SDS011;46498;49.968;7.754;2023-02-28T22:40:42;15.02;;;7.15;;
28605;SDS011;46498;49.968;7.754;2023-02-28T22:45:43;15.75;;;6.93;;
28605;SDS011;46498;49.968;7.754;2023-02-28T22:50:43;14.43;;;6.78;;
28605;SDS011;46498;49.968;7.754;2023-02-28T22:55:44;18.65;;;7.45;;
28605;SDS011;46498;49.968;7.754;2023-02-28T23:00:53;17.50;;;7.95;;
28605;SDS011;46498;49.968;7.754;2023-02-28T23:05:54;19.30;;;7.80;;
28605;SDS011;46498;49.968;7.754;2023-02-28T23:10:55;18.87;;;7.55;;
28605;SDS011;46498;49.968;7.754;2023-02-28T23:15:56;20.48;;;7.87;;
28605;SDS011;46498;49.968;7.754;2023-02-28T23:20:57;18.87;;;7.55;;
28605;SDS011;46498;49.968;7.754;2023-02-28T23:25:58;17.35;;;7.82;;
28605;SDS011;46498;49.968;7.754;2023-02-28T23:31:02;15.75;;;7.53;;
28605;SDS011;46498;49.968;7.754;2023-02-28T23:36:10;18.67;;;7.87;;
28605;SDS011;46498;49.968;7.754;2023-02-28T23:41:15;18.08;;;7.47;;
28605;SDS011;46498;49.968;7.754;2023-02-28T23:46:16;18.35;;;7.95;;
28605;SDS011;46498;49.968;7.754;2023-02-28T23:51:21;20.35;;;7.72;;
28605;SDS011;46498;49.968;7.754;2023-02-28T23:56:22;16.70;;;7.53;;
